Time;durP1;ratioP1;P1;durP2;ratioP2;P2;SDS_P1;SDS_P2;PMS_P1;PMS_P2;Temp;Humidity;BMP_temperature;BMP_pressure;BME280_temperature;BME280_humidity;BME280_pressure;Samples;Min_cycle;Max_cycle;Signal;HPM_P1;HPM_P2
2023/04/04 00:02:03;;;;;;;7.90;4.63;;;2.40;99.90;;;;;;5086046;28;20048;-59
2023/04/04 00:04:28;;;;;;;9.00;4.88;;;2.40;99.90;;;;;;5085408;28;20036;-61
2023/04/04 00:06:54;;;;;;;7.68;4.63;;;2.30;99.90;;;;;;5085775;28;20048;-51
2023/04/04 00:09:20;;;;;;;8.45;4.20;;;2.30;99.90;;;;;;5085907;28;20055;-60
2023/04/04 00:11:46;;;;;;;7.38;4.15;;;2.30;99.90;;;;;;5084613;28;20047;-62
2023/04/04 00:14:12;;;;;;;8.13;4.45;;;2.30;99.90;;;;;;5085569;28;20534;-59
2023/04/04 00:16:38;;;;;;;8.52;4.55;;;2.20;99.90;;;;;;5085211;28;20052;-59
2023/04/04 00:19:03;;;;;;;7.82;4.28;;;2.20;99.90;;;;;;5084915;28;20419;-59
2023/04/04 00:21:29;;;;;;;10.75;4.53;;;2.20;99.90;;;;;;5085301;28;20132;-60
2023/04/04 00:23:56;;;;;;;8.20;4.63;;;3.20;99.90;;;;;;5085003;28;20044;-61
2023/04/04 00:26:23;;;;;;;8.45;4.55;;;2.10;99.90;;;;;;5084701;28;20116;-59
2023/04/04 00:28:48;;;;;;;7.82;4.18;;;2.10;99.90;;;;;;5085257;28;20048;-58
2023/04/04 00:31:14;;;;;;;7.85;4.90;;;2.10;99.90;;;;;;5085356;28;20047;-57
2023/04/04 00:33:40;;;;;;;6.70;4.57;;;2.10;99.90;;;;;;5085191;28;20040;-54
2023/04/04 00:36:06;;;;;;;8.00;4.30;;;2.10;99.90;;;;;;5066462;28;20395;-61
2023/04/04 00:38:31;;;;;;;6.03;4.32;;;2.00;99.90;;;;;;5085231;28;20054;-61
2023/04/04 00:40:57;;;;;;;8.63;4.57;;;2.00;99.90;;;;;;5084282;28;20502;-56
2023/04/04 00:43:24;;;;;;;8.52;4.38;;;1.90;99.90;;;;;;5084760;28;20040;-62
2023/04/04 00:45:51;;;;;;;8.38;4.25;;;1.90;99.90;;;;;;5084968;28;20051;-56
2023/04/04 00:48:17;;;;;;;5.60;3.70;;;1.80;99.90;;;;;;5084978;28;20110;-61
2023/04/04 00:50:42;;;;;;;7.18;4.00;;;1.80;99.90;;;;;;5084448;28;20036;-59
2023/04/04 00:53:08;;;;;;;6.93;4.32;;;1.80;99.90;;;;;;5085253;28;20044;-59
2023/04/04 00:55:37;;;;;;;6.10;3.83;;;2.00;99.90;;;;;;5085153;28;20098;-52
2023/04/04 00:58:03;;;;;;;7.30;4.05;;;1.70;99.90;;;;;;5084173;28;20246;-61
2023/04/04 01:00:30;;;;;;;6.78;3.67;;;1.80;99.90;;;;;;5084726;28;20418;-55
2023/04/04 01:02:56;;;;;;;8.80;4.57;;;1.80;99.90;;;;;;5085015;28;20052;-59
2023/04/04 01:05:23;;;;;;;9.18;4.38;;;2.00;99.90;;;;;;5084726;28;20062;-62
2023/04/04 01:07:48;;;;;;;11.32;4.18;;;1.80;99.90;;;;;;5084361;28;20235;-61
2023/04/04 01:10:14;;;;;;;6.30;3.50;;;1.80;99.90;;;;;;5084597;28;20388;-60
2023/04/04 01:12:41;;;;;;;9.75;4.13;;;1.70;99.90;;;;;;5083861;28;20036;-60
2023/04/04 01:15:07;;;;;;;8.00;4.10;;;1.70;99.90;;;;;;5083700;28;20040;-59
2023/04/04 01:17:33;;;;;;;7.22;3.70;;;1.70;99.90;;;;;;5084299;28;20487;-59
2023/04/04 01:20:13;;;;;;;7.93;3.78;;;1.60;99.90;;;;;;5084497;28;20102;-61
2023/04/04 01:22:41;;;;;;;6.03;3.75;;;1.60;99.90;;;;;;5084014;28;20119;-60
2023/04/04 01:25:07;;;;;;;6.60;3.97;;;2.00;99.90;;;;;;5084342;28;20043;-60
2023/04/04 01:27:33;;;;;;;6.90;3.78;;;1.60;99.90;;;;;;5083435;28;20076;-50
2023/04/04 01:29:59;;;;;;;7.20;3.85;;;1.60;99.90;;;;;;5084405;28;20445;-61
2023/04/04 01:32:47;;;;;;;8.93;4.15;;;1.50;99.90;;;;;;5084040;28;20102;-54
2023/04/04 01:35:31;;;;;;;8.55;3.22;;;1.50;99.90;;;;;;5065636;28;20126;-60
2023/04/04 01:38:23;;;;;;;7.10;3.60;;;1.50;99.90;;;;;;5084500;28;20051;-59
2023/04/04 01:40:54;;;;;;;11.40;4.10;;;1.50;99.90;;;;;;5083326;28;20064;-61
2023/04/04 01:43:20;;;;;;;8.35;4.25;;;1.40;99.90;;;;;;5084327;28;20055;-58
2023/04/04 01:45:46;;;;;;;9.00;4.10;;;1.40;99.90;;;;;;5083774;28;20059;-58
2023/04/04 01:48:11;;;;;;;6.72;4.28;;;1.90;99.90;;;;;;5084175;28;20051;-56
2023/04/04 01:50:37;;;;;;;6.18;3.70;;;2.50;99.90;;;;;;5084020;28;20058;-59
2023/04/04 01:53:03;;;;;;;5.85;3.60;;;1.40;99.90;;;;;;5083676;28;20121;-50
2023/04/04 01:55:29;;;;;;;8.40;4.13;;;1.60;99.90;;;;;;5066323;28;20033;-59
2023/04/04 01:57:54;;;;;;;7.75;3.85;;;1.40;99.90;;;;;;5083236;28;20133;-61
2023/04/04 02:00:20;;;;;;;7.38;4.32;;;1.20;99.90;;;;;;5084115;28;20149;-61
2023/04/04 02:02:46;;;;;;;7.65;4.10;;;3.00;99.90;;;;;;5083564;28;20047;-61
2023/04/04 02:05:11;;;;;;;6.78;3.95;;;1.30;99.90;;;;;;5083867;28;20260;-59
2023/04/04 02:07:37;;;;;;;9.35;3.85;;;2.20;99.90;;;;;;5083941;28;20040;-62
2023/04/04 02:10:03;;;;;;;8.43;4.05;;;1.20;99.90;;;;;;5084017;28;20487;-60
2023/04/04 02:12:29;;;;;;;7.15;3.60;;;1.20;99.90;;;;;;5083503;28;20067;-59
2023/04/04 02:14:54;;;;;;;8.35;3.53;;;1.20;99.90;;;;;;5083995;28;20068;-57
2023/04/04 02:17:20;;;;;;;7.32;3.92;;;1.20;99.90;;;;;;5083581;28;20051;-54
2023/04/04 02:19:46;;;;;;;7.72;4.03;;;1.20;99.90;;;;;;5083854;28;20435;-57
2023/04/04 02:22:11;;;;;;;6.55;3.83;;;1.10;99.90;;;;;;5083494;28;20051;-58
2023/04/04 02:24:37;;;;;;;5.43;3.33;;;1.00;99.90;;;;;;5065764;28;20055;-56
2023/04/04 02:27:03;;;;;;;8.15;4.05;;;1.10;99.90;;;;;;5082957;28;20040;-60
2023/04/04 02:29:29;;;;;;;7.63;3.75;;;1.00;99.90;;;;;;5083716;28;20060;-60
2023/04/04 02:31:55;;;;;;;7.13;3.30;;;2.80;99.90;;;;;;5083939;28;20046;-61
2023/04/04 02:34:20;;;;;;;7.22;3.40;;;1.00;99.90;;;;;;5083643;28;20068;-61
2023/04/04 02:36:46;;;;;;;6.70;3.25;;;1.00;99.90;;;;;;5083547;28;20033;-52
2023/04/04 02:39:12;;;;;;;5.43;3.28;;;1.00;99.90;;;;;;5083716;28;20611;-60
2023/04/04 02:41:37;;;;;;;5.65;2.97;;;0.90;99.90;;;;;;5082536;28;20522;-56
2023/04/04 02:44:03;;;;;;;6.75;3.35;;;0.90;99.90;;;;;;5083813;28;20530;-55
2023/04/04 02:46:28;;;;;;;9.40;3.83;;;0.90;99.90;;;;;;5065483;28;20116;-61
2023/04/04 02:48:54;;;;;;;6.88;3.47;;;0.90;99.90;;;;;;5086730;28;20524;-61
2023/04/04 02:51:20;;;;;;;5.70;3.03;;;0.90;99.90;;;;;;5086705;28;20054;-58
2023/04/04 02:53:45;;;;;;;7.00;3.55;;;0.80;99.90;;;;;;5087270;28;20486;-58
2023/04/04 02:56:12;;;;;;;4.60;2.80;;;1.60;99.90;;;;;;5086781;28;20510;-57
2023/04/04 02:58:37;;;;;;;6.70;3.13;;;0.80;99.90;;;;;;5086614;28;20338;-54
2023/04/04 03:01:03;;;;;;;7.75;3.13;;;1.80;99.90;;;;;;5087523;28;20125;-58
2023/04/04 03:03:28;;;;;;;7.05;3.40;;;0.80;99.90;;;;;;5086985;28;20428;-50
2023/04/04 03:05:54;;;;;;;7.57;3.47;;;0.80;99.90;;;;;;5086666;28;20575;-61
2023/04/04 03:08:20;;;;;;;7.30;3.20;;;0.90;99.90;;;;;;5068159;28;20052;-61
2023/04/04 03:10:46;;;;;;;8.48;3.78;;;0.90;99.90;;;;;;5068399;28;20051;-60
2023/04/04 03:13:11;;;;;;;8.32;4.18;;;0.80;99.90;;;;;;5086752;28;20036;-61
2023/04/04 03:15:39;;;;;;;5.45;3.35;;;0.80;99.90;;;;;;5086780;28;20490;-60
2023/04/04 03:18:05;;;;;;;7.68;3.10;;;0.90;99.90;;;;;;5086872;28;20075;-61
2023/04/04 03:20:31;;;;;;;7.15;3.55;;;0.70;99.90;;;;;;5086442;28;20073;-61
2023/04/04 03:22:57;;;;;;;5.57;3.58;;;0.70;99.90;;;;;;5086109;28;20071;-59
2023/04/04 03:25:23;;;;;;;5.75;3.40;;;0.70;99.90;;;;;;5086089;28;20075;-57
2023/04/04 03:27:49;;;;;;;6.18;3.63;;;0.70;99.90;;;;;;5086552;28;20078;-57
2023/04/04 03:30:14;;;;;;;7.22;3.72;;;0.70;99.90;;;;;;5086170;28;20068;-57
2023/04/04 03:32:40;;;;;;;9.02;4.03;;;0.70;99.90;;;;;;5086652;28;21407;-57
2023/04/04 03:35:06;;;;;;;8.07;3.55;;;0.70;99.90;;;;;;5086681;28;20511;-61
2023/04/04 03:37:32;;;;;;;6.40;3.38;;;0.70;99.90;;;;;;5068207;28;20093;-58
2023/04/04 03:39:58;;;;;;;5.75;3.40;;;0.60;99.90;;;;;;5085655;28;20048;-61
2023/04/04 03:42:23;;;;;;;8.32;3.50;;;0.60;99.90;;;;;;5085813;28;20052;-60
2023/04/04 03:44:49;;;;;;;7.47;3.80;;;0.60;99.90;;;;;;5068264;28;20029;-61
2023/04/04 03:47:15;;;;;;;7.85;3.50;;;0.60;99.90;;;;;;5067894;28;20048;-60
2023/04/04 03:49:41;;;;;;;7.22;3.92;;;0.60;99.90;;;;;;5086074;28;20048;-61
2023/04/04 03:52:06;;;;;;;6.50;3.35;;;0.50;99.90;;;;;;5086530;28;20430;-61
2023/04/04 03:54:32;;;;;;;7.38;3.75;;;0.50;99.90;;;;;;5085812;28;20063;-61
2023/04/04 03:56:58;;;;;;;8.60;4.15;;;0.50;99.90;;;;;;5085266;28;20088;-54
2023/04/04 03:59:24;;;;;;;5.85;3.33;;;0.40;99.90;;;;;;5086119;28;20115;-58
2023/04/04 04:01:50;;;;;;;6.32;3.33;;;0.40;99.90;;;;;;5085614;28;20044;-56
2023/04/04 04:04:15;;;;;;;6.40;3.65;;;0.30;99.90;;;;;;5085211;28;20486;-56
2023/04/04 04:06:41;;;;;;;5.80;3.90;;;0.30;99.90;;;;;;5067589;28;20104;-53
2023/04/04 04:09:07;;;;;;;6.63;4.20;;;0.20;99.90;;;;;;5085957;28;20040;-57
2023/04/04 04:11:33;;;;;;;7.53;3.80;;;0.20;99.90;;;;;;5084764;28;20085;-59
2023/04/04 04:13:59;;;;;;;7.25;3.70;;;0.10;99.90;;;;;;5085539;28;20047;-60
2023/04/04 04:16:26;;;;;;;6.72;3.55;;;0.10;99.90;;;;;;5085379;28;20060;-60
2023/04/04 04:18:52;;;;;;;7.10;4.00;;;0.10;99.90;;;;;;5084798;28;20053;-58
2023/04/04 04:21:18;;;;;;;5.60;3.58;;;0.10;99.90;;;;;;5085426;28;20036;-61
2023/04/04 04:23:43;;;;;;;6.80;3.67;;;0.10;99.90;;;;;;5085551;28;20111;-60
2023/04/04 04:26:09;;;;;;;6.97;4.15;;;0.10;99.90;;;;;;5084839;28;20491;-59
2023/04/04 04:28:35;;;;;;;8.77;4.45;;;0.10;99.90;;;;;;5084913;28;20044;-60
2023/04/04 04:31:08;;;;;;;10.50;4.40;;;0.10;99.90;;;;;;5085254;28;20036;-55
2023/04/04 04:33:34;;;;;;;9.73;4.28;;;0.10;99.90;;;;;;5085106;28;20051;-61
2023/04/04 04:36:03;;;;;;;12.27;4.50;;;0.10;99.90;;;;;;5084826;28;20294;-61
2023/04/04 04:38:29;;;;;;;6.85;4.00;;;0.20;99.90;;;;;;5085275;28;20044;-57
2023/04/04 04:40:56;;;;;;;7.20;3.70;;;0.20;99.90;;;;;;5084183;28;20465;-57
2023/04/04 04:43:22;;;;;;;6.03;3.72;;;0.20;99.90;;;;;;5084638;28;20055;-52
2023/04/04 04:45:49;;;;;;;6.20;3.97;;;0.20;99.90;;;;;;5084976;28;20084;-61
2023/04/04 04:48:18;;;;;;;8.13;3.75;;;0.20;99.90;;;;;;5084833;28;20052;-59
2023/04/04 04:50:47;;;;;;;8.70;4.15;;;0.20;99.90;;;;;;5084620;28;20042;-58
2023/04/04 04:53:15;;;;;;;8.15;4.05;;;0.10;99.90;;;;;;5067217;28;20122;-59
2023/04/04 04:55:45;;;;;;;9.07;4.15;;;0.00;99.90;;;;;;5084469;28;20512;-62
2023/04/04 04:58:15;;;;;;;6.53;3.50;;;0.30;99.90;;;;;;5084939;28;20127;-56
2023/04/04 05:00:41;;;;;;;7.68;3.80;;;0.00;99.90;;;;;;5084871;28;20051;-59
2023/04/04 05:03:06;;;;;;;7.38;4.35;;;0.00;99.90;;;;;;5084814;28;20043;-60
2023/04/04 05:05:33;;;;;;;6.85;4.05;;;0.00;99.90;;;;;;5084318;28;20363;-61
2023/04/04 05:08:01;;;;;;;8.73;4.60;;;0.00;99.90;;;;;;5084521;28;20040;-59
2023/04/04 05:10:27;;;;;;;8.15;4.13;;;0.10;99.90;;;;;;5083521;28;20143;-60
2023/04/04 05:12:52;;;;;;;8.10;4.20;;;0.20;99.90;;;;;;5084178;28;20119;-60
2023/04/04 05:15:20;;;;;;;6.78;3.88;;;0.20;99.90;;;;;;5084391;28;20098;-57
2023/04/04 05:17:45;;;;;;;6.75;3.55;;;0.90;99.90;;;;;;5084443;28;20036;-58
2023/04/04 05:20:11;;;;;;;7.90;3.33;;;0.30;99.90;;;;;;5084195;28;20054;-57
2023/04/04 05:22:42;;;;;;;8.50;4.00;;;0.30;99.90;;;;;;5084411;28;20117;-60
2023/04/04 05:25:09;;;;;;;7.63;3.78;;;0.40;99.90;;;;;;5084208;28;20048;-57
2023/04/04 05:27:34;;;;;;;9.43;3.80;;;0.30;99.90;;;;;;5083453;28;20044;-62
2023/04/04 05:30:00;;;;;;;6.70;3.63;;;0.60;99.90;;;;;;5084434;28;20043;-56
2023/04/04 05:32:26;;;;;;;6.22;3.38;;;0.30;99.90;;;;;;5066280;28;20048;-59
2023/04/04 05:34:51;;;;;;;6.93;3.55;;;0.30;99.90;;;;;;5084165;28;20075;-58
2023/04/04 05:37:17;;;;;;;8.07;3.95;;;0.40;99.90;;;;;;5083685;28;20063;-51
2023/04/04 05:39:43;;;;;;;7.22;4.72;;;0.40;99.90;;;;;;5084108;28;20044;-58
2023/04/04 05:42:08;;;;;;;8.13;4.38;;;0.40;99.90;;;;;;5083273;28;20423;-58
2023/04/04 05:44:36;;;;;;;6.85;3.53;;;2.10;99.90;;;;;;5083820;28;20486;-61
2023/04/04 05:47:02;;;;;;;9.95;4.10;;;0.80;99.90;;;;;;5084265;28;20044;-61
2023/04/04 05:49:27;;;;;;;6.72;3.60;;;0.80;99.90;;;;;;5066181;28;20376;-58
2023/04/04 05:51:55;;;;;;;7.50;3.70;;;1.10;99.90;;;;;;5083527;28;20058;-60
2023/04/04 05:54:21;;;;;;;5.93;3.05;;;1.40;99.90;;;;;;5084526;28;20335;-58
2023/04/04 05:56:47;;;;;;;7.68;3.55;;;1.30;99.90;;;;;;5083328;28;20043;-53
2023/04/04 05:59:13;;;;;;;8.32;4.28;;;1.50;99.90;;;;;;5084017;28;20062;-51
2023/04/04 06:01:39;;;;;;;6.78;3.22;;;1.60;99.90;;;;;;5084225;28;20051;-60
2023/04/04 06:04:05;;;;;;;7.07;3.10;;;1.70;99.90;;;;;;5066029;28;20079;-58
2023/04/04 06:06:34;;;;;;;8.13;3.40;;;1.70;99.90;;;;;;5083851;28;20487;-60
2023/04/04 06:09:00;;;;;;;9.55;3.70;;;1.80;99.90;;;;;;5083617;28;20047;-59
2023/04/04 06:11:26;;;;;;;8.27;4.22;;;1.80;99.90;;;;;;5083771;28;20040;-59
2023/04/04 06:13:53;;;;;;;7.68;3.80;;;1.80;99.90;;;;;;5083788;28;20395;-62
2023/04/04 06:16:20;;;;;;;8.43;3.92;;;1.80;99.90;;;;;;5083521;28;20471;-57
2023/04/04 06:18:46;;;;;;;7.00;3.35;;;1.70;99.90;;;;;;5084292;28;20075;-57
2023/04/04 06:21:15;;;;;;;8.95;4.10;;;2.10;99.90;;;;;;5083870;28;20085;-61
2023/04/04 06:23:40;;;;;;;8.18;3.60;;;2.10;99.90;;;;;;5086470;28;20036;-61
2023/04/04 06:26:07;;;;;;;8.05;3.78;;;2.30;99.90;;;;;;5086639;28;20075;-58
2023/04/04 06:28:33;;;;;;;10.55;3.85;;;2.40;99.90;;;;;;5088051;28;20310;-61
2023/04/04 06:30:58;;;;;;;6.88;3.45;;;2.60;99.90;;;;;;5087205;28;20123;-61
2023/04/04 06:33:24;;;;;;;9.88;3.88;;;3.20;99.90;;;;;;5087727;28;20036;-57
2023/04/04 06:35:50;;;;;;;6.22;3.50;;;2.90;99.90;;;;;;5087574;28;20463;-61
2023/04/04 06:38:16;;;;;;;9.15;3.85;;;3.10;99.90;;;;;;5087654;28;20036;-60
2023/04/04 06:40:41;;;;;;;8.95;4.28;;;3.70;99.90;;;;;;5086066;28;20066;-60
2023/04/04 06:43:07;;;;;;;6.55;3.22;;;5.10;99.90;;;;;;5087304;28;20032;-57
2023/04/04 06:45:34;;;;;;;5.88;3.00;;;5.20;99.90;;;;;;5087018;28;20510;-53
2023/04/04 06:48:01;;;;;;;7.72;3.10;;;5.80;99.90;;;;;;5086660;28;20474;-61
2023/04/04 06:50:31;;;;;;;6.88;2.67;;;6.20;99.90;;;;;;5087057;28;20111;-60
2023/04/04 06:52:57;;;;;;;12.00;2.90;;;6.60;99.90;;;;;;5068600;28;20042;-61
2023/04/04 06:55:22;;;;;;;7.40;3.08;;;6.90;99.90;;;;;;5085461;28;20048;-64
2023/04/04 06:57:48;;;;;;;8.00;2.65;;;7.10;99.90;;;;;;5087508;28;20482;-56
2023/04/04 07:00:14;;;;;;;6.30;2.70;;;7.20;99.90;;;;;;5086853;28;20063;-59
2023/04/04 07:02:40;;;;;;;7.20;2.90;;;7.30;99.90;;;;;;5085982;28;20043;-57
2023/04/04 07:05:06;;;;;;;9.07;3.58;;;7.80;99.90;;;;;;5068550;28;20043;-56
2023/04/04 07:07:32;;;;;;;6.82;2.95;;;7.80;99.90;;;;;;5086645;28;20404;-61
2023/04/04 07:09:57;;;;;;;7.20;2.88;;;8.00;97.20;;;;;;5085586;28;20126;-63
2023/04/04 07:12:23;;;;;;;8.93;3.55;;;7.90;93.40;;;;;;5086426;28;20040;-61
2023/04/04 07:14:48;;;;;;;8.60;2.92;;;7.80;93.70;;;;;;5087088;28;20040;-62
2023/04/04 07:17:14;;;;;;;7.85;3.45;;;7.90;93.50;;;;;;5086222;28;20456;-62
2023/04/04 07:19:40;;;;;;;6.68;3.20;;;7.80;92.90;;;;;;5085791;28;20043;-61
2023/04/04 07:22:06;;;;;;;9.35;3.35;;;7.90;92.80;;;;;;5085904;28;20497;-61
2023/04/04 07:24:31;;;;;;;8.52;3.65;;;8.10;92.30;;;;;;5086073;28;20040;-59
2023/04/04 07:26:57;;;;;;;8.68;2.92;;;8.10;92.10;;;;;;5083624;28;20032;-61
2023/04/04 07:29:22;;;;;;;8.07;3.45;;;8.20;90.90;;;;;;5085369;28;20612;-60
2023/04/04 07:31:48;;;;;;;7.38;3.17;;;8.10;90.60;;;;;;5085617;28;20087;-61
2023/04/04 07:34:14;;;;;;;9.88;3.30;;;8.00;88.60;;;;;;5085307;28;20457;-61
2023/04/04 07:36:39;;;;;;;6.93;3.30;;;8.20;90.00;;;;;;5085698;28;20490;-62
2023/04/04 07:39:05;;;;;;;6.88;3.17;;;8.20;86.60;;;;;;5085477;28;20517;-59
2023/04/04 07:41:31;;;;;;;7.72;3.00;;;8.40;86.50;;;;;;5085571;28;20044;-58
2023/04/04 07:43:57;;;;;;;8.45;3.38;;;8.50;86.10;;;;;;5085956;28;20040;-56
2023/04/04 07:46:23;;;;;;;7.50;3.35;;;8.60;85.80;;;;;;5086449;28;20067;-53
2023/04/04 07:48:49;;;;;;;6.47;3.10;;;8.60;84.80;;;;;;5086550;28;20089;-57
2023/04/04 07:51:15;;;;;;;7.05;3.00;;;8.20;83.60;;;;;;5085558;28;20059;-50
2023/04/04 07:53:40;;;;;;;7.85;3.22;;;7.60;85.80;;;;;;5086835;28;20040;-60
2023/04/04 07:56:06;;;;;;;9.07;3.47;;;7.00;88.60;;;;;;5086673;28;20087;-62
2023/04/04 07:58:33;;;;;;;9.27;3.30;;;6.50;90.40;;;;;;5086788;28;20040;-59
2023/04/04 08:01:02;;;;;;;7.80;2.97;;;6.10;90.80;;;;;;5085725;28;20051;-62
2023/04/04 08:03:28;;;;;;;10.73;3.40;;;5.70;92.20;;;;;;5087038;28;20036;-59
2023/04/04 08:05:54;;;;;;;9.18;3.10;;;5.90;93.10;;;;;;5086633;28;20093;-50
2023/04/04 08:08:20;;;;;;;7.25;3.15;;;5.20;93.80;;;;;;5087263;28;20132;-56
2023/04/04 08:10:45;;;;;;;9.82;3.25;;;5.10;93.20;;;;;;5086281;28;20693;-59
2023/04/04 08:13:12;;;;;;;6.32;2.90;;;5.60;94.50;;;;;;5087230;28;20063;-57
2023/04/04 08:15:38;;;;;;;6.63;2.80;;;5.10;92.90;;;;;;5086140;28;20039;-61
2023/04/04 08:18:03;;;;;;;10.55;3.00;;;5.10;93.10;;;;;;5086720;28;20047;-62
2023/04/04 08:20:30;;;;;;;6.40;2.70;;;5.20;93.00;;;;;;5085312;28;20047;-63
2023/04/04 08:22:56;;;;;;;8.13;2.60;;;5.30;93.50;;;;;;5085536;28;20437;-63
2023/04/04 08:25:22;;;;;;;7.43;2.42;;;5.90;92.00;;;;;;5085258;28;20377;-63
2023/04/04 08:27:47;;;;;;;4.35;2.22;;;5.40;92.40;;;;;;5085490;28;20807;-60
2023/04/04 08:30:14;;;;;;;6.60;2.42;;;5.50;92.30;;;;;;5050536;28;20370;-59
2023/04/04 08:32:41;;;;;;;5.57;2.30;;;5.50;91.00;;;;;;5085074;28;20414;-62
2023/04/04 08:35:07;;;;;;;7.72;2.72;;;5.70;91.20;;;;;;5078417;28;20036;-57
2023/04/04 08:37:34;;;;;;;6.38;2.72;;;5.80;90.30;;;;;;5082106;28;20048;-54
2023/04/04 08:40:01;;;;;;;6.70;2.53;;;5.90;90.10;;;;;;5083033;28;20044;-61
2023/04/04 08:42:34;;;;;;;5.18;2.08;;;6.30;90.40;;;;;;5084625;28;20052;-60
2023/04/04 08:45:05;;;;;;;5.13;2.05;;;6.10;88.30;;;;;;5083739;28;20412;-57
2023/04/04 08:47:32;;;;;;;7.70;2.75;;;6.20;88.70;;;;;;5084274;28;20044;-60
2023/04/04 08:50:00;;;;;;;5.53;2.30;;;6.30;88.10;;;;;;5084147;28;20051;-59
2023/04/04 08:52:27;;;;;;;7.13;2.67;;;6.40;88.70;;;;;;5084782;28;20036;-54
2023/04/04 08:54:54;;;;;;;7.45;2.50;;;6.50;89.00;;;;;;5083213;28;20044;-55
2023/04/04 08:57:20;;;;;;;5.22;2.30;;;6.60;89.20;;;;;;5084639;28;20036;-51
2023/04/04 08:59:47;;;;;;;5.35;2.40;;;6.70;89.40;;;;;;5065973;28;20051;-61
2023/04/04 09:02:51;;;;;;;5.55;2.08;;;7.00;85.90;;;;;;5065256;28;20046;-56
2023/04/04 09:05:17;;;;;;;8.38;2.83;;;7.40;79.80;;;;;;5066122;28;20064;-57
2023/04/04 09:07:43;;;;;;;6.28;2.40;;;7.90;81.30;;;;;;5065753;28;20040;-62
2023/04/04 09:10:10;;;;;;;5.18;2.17;;;8.20;78.80;;;;;;5083709;28;20043;-57
2023/04/04 09:12:38;;;;;;;3.80;1.80;;;8.70;79.30;;;;;;5083830;28;20044;-57
2023/04/04 09:15:05;;;;;;;7.10;1.70;;;9.20;75.40;;;;;;5084085;28;20591;-56
2023/04/04 09:17:30;;;;;;;4.30;1.67;;;9.60;76.10;;;;;;5084546;28;20051;-61
2023/04/04 09:20:03;;;;;;;5.65;2.10;;;9.90;74.70;;;;;;5084403;28;20035;-59
2023/04/04 09:22:29;;;;;;;3.50;1.70;;;10.20;73.70;;;;;;5083533;28;20048;-57
2023/04/04 09:24:55;;;;;;;4.78;2.08;;;10.40;73.70;;;;;;5083185;28;20517;-57
2023/04/04 09:27:21;;;;;;;3.80;2.00;;;10.50;73.10;;;;;;5083971;28;20047;-60
2023/04/04 09:29:47;;;;;;;3.78;1.90;;;10.80;74.00;;;;;;5065640;28;20043;-61
2023/04/04 09:32:14;;;;;;;7.75;2.20;;;11.00;72.90;;;;;;5084441;28;20052;-60
2023/04/04 09:34:42;;;;;;;3.90;2.20;;;11.00;72.60;;;;;;5084163;28;20530;-60
2023/04/04 09:37:09;;;;;;;5.55;2.40;;;10.90;69.80;;;;;;5083666;28;20044;-61
2023/04/04 09:39:38;;;;;;;3.63;1.67;;;10.90;72.70;;;;;;5083319;28;20131;-61
2023/04/04 09:42:05;;;;;;;7.40;2.10;;;10.80;71.80;;;;;;5084233;28;20049;-60
2023/04/04 09:44:32;;;;;;;7.40;2.08;;;10.80;72.50;;;;;;5083795;28;20040;-61
2023/04/04 09:47:23;;;;;;;4.18;2.08;;;10.90;74.00;;;;;;5084654;28;20554;-62
2023/04/04 09:49:49;;;;;;;4.97;2.10;;;11.20;72.70;;;;;;5083942;28;20083;-62
2023/04/04 09:52:21;;;;;;;5.97;2.17;;;11.50;76.10;;;;;;5084089;28;20497;-53
2023/04/04 09:54:58;;;;;;;6.13;2.72;;;11.80;75.30;;;;;;5065238;28;20032;-60
2023/04/04 09:57:29;;;;;;;6.72;2.50;;;12.10;75.10;;;;;;5086960;28;20051;-59
2023/04/04 09:59:57;;;;;;;3.78;1.80;;;12.20;73.60;;;;;;5088471;28;20048;-59
2023/04/04 10:02:23;;;;;;;5.50;2.22;;;12.00;74.80;;;;;;5087776;28;20069;-59
2023/04/04 10:04:49;;;;;;;6.00;2.03;;;12.10;75.00;;;;;;5088167;28;20051;-54
2023/04/04 10:07:15;;;;;;;5.25;2.10;;;12.00;71.40;;;;;;5069836;28;20138;-60
2023/04/04 10:09:41;;;;;;;5.68;1.95;;;11.50;70.70;;;;;;5087231;28;20079;-59
2023/04/04 10:12:10;;;;;;;5.35;2.20;;;11.50;74.10;;;;;;5088083;28;20088;-60
2023/04/04 10:14:36;;;;;;;4.90;2.10;;;11.40;72.80;;;;;;5087814;28;20139;-53
2023/04/04 10:17:12;;;;;;;4.72;2.25;;;11.60;74.90;;;;;;5087565;28;20348;-58
2023/04/04 10:19:38;;;;;;;5.15;2.35;;;11.60;70.60;;;;;;5088065;28;20399;-58
2023/04/04 10:22:08;;;;;;;5.60;2.13;;;11.80;73.60;;;;;;5087977;28;20051;-59
2023/04/04 10:24:35;;;;;;;6.53;2.63;;;12.00;74.10;;;;;;5086890;28;20224;-60
2023/04/04 10:27:00;;;;;;;4.88;2.42;;;11.90;73.30;;;;;;5087954;28;20129;-56
2023/04/04 10:29:26;;;;;;;7.18;2.47;;;12.10;75.10;;;;;;5086676;28;20039;-61
2023/04/04 10:32:05;;;;;;;4.63;2.33;;;12.30;75.50;;;;;;5087587;28;20510;-61
2023/04/04 10:35:01;;;;;;;4.72;2.20;;;12.60;74.30;;;;;;5088010;28;20111;-58
2023/04/04 10:37:33;;;;;;;4.82;2.38;;;12.60;69.20;;;;;;5085943;28;20052;-51
2023/04/04 10:39:59;;;;;;;6.95;2.22;;;12.50;74.00;;;;;;5086561;28;20079;-60
2023/04/04 10:42:28;;;;;;;4.03;2.40;;;12.50;73.00;;;;;;5087498;28;20474;-58
2023/04/04 10:44:54;;;;;;;4.15;2.20;;;12.40;73.20;;;;;;5068959;28;20418;-58
2023/04/04 10:47:21;;;;;;;4.63;2.10;;;12.40;74.40;;;;;;5087679;28;20048;-60
2023/04/04 10:49:48;;;;;;;6.25;2.25;;;12.50;69.30;;;;;;5087984;28;20116;-60
2023/04/04 10:52:17;;;;;;;4.47;2.50;;;12.10;70.40;;;;;;5068804;28;20145;-63
2023/04/04 10:54:43;;;;;;;7.90;2.20;;;11.80;69.70;;;;;;5086025;28;20086;-60
2023/04/04 10:57:11;;;;;;;4.63;2.60;;;11.60;71.90;;;;;;5086696;28;20347;-56
2023/04/04 11:00:09;;;;;;;5.20;2.33;;;11.60;72.60;;;;;;5079265;28;20036;-62
2023/04/04 11:02:58;;;;;;;6.63;2.65;;;11.80;69.80;;;;;;5085991;28;20562;-55
2023/04/04 11:05:33;;;;;;;4.72;2.33;;;11.60;71.20;;;;;;5086696;28;20068;-57
2023/04/04 11:08:04;;;;;;;5.35;2.65;;;11.40;68.40;;;;;;5085664;28;20044;-62
2023/04/04 11:10:34;;;;;;;4.15;2.28;;;11.30;73.00;;;;;;5085768;28;20071;-59
2023/04/04 11:13:08;;;;;;;4.30;2.50;;;11.60;73.00;;;;;;5086796;28;20040;-62
2023/04/04 11:15:58;;;;;;;;;;;11.70;68.60;;;;;;5086316;28;20454;-62
2023/04/04 11:18:40;;;;;;;4.60;2.60;;;11.50;68.80;;;;;;5073199;28;20032;-62
2023/04/04 11:21:17;;;;;;;4.35;2.30;;;11.30;67.10;;;;;;5086157;28;20410;-59
2023/04/04 11:23:58;;;;;;;4.80;2.50;;;11.10;68.80;;;;;;5086560;28;20048;-60
2023/04/04 11:26:26;;;;;;;5.63;2.42;;;11.30;71.00;;;;;;5084889;28;20200;-62
2023/04/04 11:29:19;;;;;;;6.68;2.75;;;11.80;71.80;;;;;;5085923;28;20035;-54
2023/04/04 11:31:47;;;;;;;6.18;2.53;;;12.30;67.60;;;;;;5087054;28;20032;-62
2023/04/04 11:34:14;;;;;;;5.75;2.85;;;12.40;71.50;;;;;;5069477;28;20048;-56
2023/04/04 11:36:41;;;;;;;4.10;2.40;;;12.60;72.40;;;;;;5086922;28;20136;-60
2023/04/04 11:39:15;;;;;;;6.45;2.80;;;12.70;72.10;;;;;;5087003;28;20044;-61
2023/04/04 11:41:50;;;;;;;4.75;2.60;;;12.80;68.60;;;;;;5086134;28;20139;-59
2023/04/04 11:44:17;;;;;;;5.97;2.72;;;12.90;68.20;;;;;;5086026;28;20044;-56
2023/04/04 11:46:45;;;;;;;5.45;2.53;;;13.00;71.70;;;;;;5086277;28;20089;-58
2023/04/04 11:49:10;;;;;;;4.55;2.50;;;13.20;72.70;;;;;;5085825;28;20506;-61
2023/04/04 11:51:39;;;;;;;4.38;2.70;;;13.10;70.50;;;;;;5085486;28;20036;-60
2023/04/04 11:54:14;;;;;;;3.80;2.20;;;12.80;70.90;;;;;;5085050;28;20050;-54
2023/04/04 11:56:43;;;;;;;4.75;2.25;;;12.70;71.60;;;;;;5085152;28;20044;-62
2023/04/04 11:59:16;;;;;;;5.28;2.40;;;12.30;70.90;;;;;;5085537;28;20047;-61
2023/04/04 12:01:43;;;;;;;6.38;3.10;;;12.00;71.00;;;;;;5067602;28;20126;-61
2023/04/04 12:04:09;;;;;;;5.55;2.70;;;12.20;73.30;;;;;;5084911;28;20468;-61
2023/04/04 12:06:39;;;;;;;9.40;3.30;;;12.50;73.20;;;;;;5067504;28;20052;-62
2023/04/04 12:09:06;;;;;;;6.47;2.90;;;12.60;72.50;;;;;;5084825;28;20040;-53
2023/04/04 12:11:36;;;;;;;5.50;3.03;;;12.50;72.10;;;;;;5067400;28;20048;-60
2023/04/04 12:14:01;;;;;;;4.80;3.10;;;12.60;72.50;;;;;;5085517;28;20111;-62
2023/04/04 12:16:27;;;;;;;4.15;2.70;;;12.80;72.70;;;;;;5085200;28;20194;-60
2023/04/04 12:18:55;;;;;;;5.00;2.83;;;12.80;73.00;;;;;;5066069;28;20100;-58
2023/04/04 12:21:20;;;;;;;5.30;2.83;;;12.90;72.50;;;;;;5083993;28;20130;-54
2023/04/04 12:23:49;;;;;;;5.55;2.90;;;12.80;71.60;;;;;;5085182;28;20126;-58
2023/04/04 12:26:17;;;;;;;5.50;3.20;;;12.70;71.70;;;;;;5084227;28;20051;-62
2023/04/04 12:28:44;;;;;;;7.10;3.13;;;12.60;71.60;;;;;;5066689;28;20326;-62
2023/04/04 12:31:12;;;;;;;5.40;3.05;;;12.80;72.70;;;;;;5084953;28;20105;-61
2023/04/04 12:33:40;;;;;;;5.82;3.25;;;12.80;73.00;;;;;;5067116;28;20048;-55
2023/04/04 12:36:06;;;;;;;6.30;3.13;;;12.90;72.70;;;;;;5085080;28;20415;-60
2023/04/04 12:38:32;;;;;;;5.82;2.90;;;13.00;73.50;;;;;;5085069;28;20040;-54
2023/04/04 12:40:58;;;;;;;4.60;2.78;;;13.20;71.40;;;;;;5083537;28;20060;-60
2023/04/04 12:43:30;;;;;;;5.78;2.72;;;13.00;71.90;;;;;;5084137;28;20410;-51
2023/04/04 12:45:57;;;;;;;7.22;2.72;;;12.70;70.40;;;;;;5084966;28;20052;-57
2023/04/04 12:48:27;;;;;;;4.90;2.72;;;12.70;72.70;;;;;;5084586;28;20040;-51
2023/04/04 12:50:59;;;;;;;6.88;3.28;;;12.60;70.80;;;;;;5084647;28;20115;-60
2023/04/04 12:53:28;;;;;;;5.78;3.38;;;12.70;71.30;;;;;;5084399;28;20096;-59
2023/04/04 12:55:59;;;;;;;6.18;3.20;;;12.60;73.10;;;;;;5083854;28;20048;-61
2023/04/04 12:58:25;;;;;;;6.18;3.40;;;12.60;72.90;;;;;;5083927;28;20385;-58